sensor_id;sensor_type;location;lat;lon;timestamp;pressure;altitude;pressure_sealevel;temperature;humidity
21100;BME280;10708;50.824;4.408;2023-04-24T00:00:55;99279.47;;;8.73;100.00
21100;BME280;10708;50.824;4.408;2023-04-24T00:05:59;99259.63;;;8.68;100.00
21100;BME280;10708;50.824;4.408;2023-04-24T00:11:03;99272.03;;;8.64;100.00
21100;BME280;10708;50.824;4.408;2023-04-24T00:16:05;99272.97;;;8.63;100.00
21100;BME280;10708;50.824;4.408;2023-04-24T00:21:08;99268.78;;;8.59;100.00
21100;BME280;10708;50.824;4.408;2023-04-24T00:26:12;99282.97;;;8.55;100.00
21100;BME280;10708;50.824;4.408;2023-04-24T00:31:14;99293.63;;;8.52;100.00
21100;BME280;10708;50.824;4.408;2023-04-24T00:36:16;99293.75;;;8.49;100.00
21100;BME280;10708;50.824;4.408;2023-04-24T00:41:22;99291.22;;;8.47;100.00
21100;BME280;10708;50.824;4.408;2023-04-24T00:46:25;99282.69;;;8.42;100.00
21100;BME280;10708;50.824;4.408;2023-04-24T00:51:27;99281.91;;;8.40;100.00
21100;BME280;10708;50.824;4.408;2023-04-24T00:56:33;99283.69;;;8.40;100.00
21100;BME280;10708;50.824;4.408;2023-04-24T01:01:35;99294.19;;;8.40;100.00
21100;BME280;10708;50.824;4.408;2023-04-24T01:06:39;99290.63;;;8.41;100.00
21100;BME280;10708;50.824;4.408;2023-04-24T01:11:43;99279.34;;;8.39;100.00
21100;BME280;10708;50.824;4.408;2023-04-24T01:16:45;99284.78;;;8.36;100.00
21100;BME280;10708;50.824;4.408;2023-04-24T01:21:51;99280.78;;;8.27;100.00
21100;BME280;10708;50.824;4.408;2023-04-24T01:26:56;99283.72;;;8.20;100.00
21100;BME280;10708;50.824;4.408;2023-04-24T01:31:59;99282.56;;;8.08;100.00
21100;BME280;10708;50.824;4.408;2023-04-24T01:37:02;99288.97;;;8.01;100.00
21100;BME280;10708;50.824;4.408;2023-04-24T01:42:07;99289.88;;;8.00;100.00
21100;BME280;10708;50.824;4.408;2023-04-24T01:47:09;99286.84;;;7.90;100.00
21100;BME280;10708;50.824;4.408;2023-04-24T01:52:12;99293.84;;;7.90;100.00
21100;BME280;10708;50.824;4.408;2023-04-24T01:57:16;99289.31;;;7.93;100.00
21100;BME280;10708;50.824;4.408;2023-04-24T02:02:18;99288.59;;;7.90;100.00
21100;BME280;10708;50.824;4.408;2023-04-24T02:07:24;99288.69;;;7.88;100.00
21100;BME280;10708;50.824;4.408;2023-04-24T02:12:28;99291.38;;;7.87;100.00
21100;BME280;10708;50.824;4.408;2023-04-24T02:17:30;99299.38;;;7.84;100.00
21100;BME280;10708;50.824;4.408;2023-04-24T02:22:39;99285.28;;;7.86;100.00
21100;BME280;10708;50.824;4.408;2023-04-24T02:27:43;99295.84;;;7.85;100.00
21100;BME280;10708;50.824;4.408;2023-04-24T02:32:45;99301.19;;;7.82;100.00
21100;BME280;10708;50.824;4.408;2023-04-24T02:37:51;99307.44;;;7.79;100.00
21100;BME280;10708;50.824;4.408;2023-04-24T02:42:56;99306.59;;;7.78;100.00
21100;BME280;10708;50.824;4.408;2023-04-24T02:47:59;99303.13;;;7.78;100.00
21100;BME280;10708;50.824;4.408;2023-04-24T02:53:02;99299.56;;;7.79;100.00
21100;BME280;10708;50.824;4.408;2023-04-24T02:58:06;99305.75;;;7.78;100.00
21100;BME280;10708;50.824;4.408;2023-04-24T03:03:08;99300.56;;;7.76;100.00
21100;BME280;10708;50.824;4.408;2023-04-24T03:08:11;99297.94;;;7.76;100.00
21100;BME280;10708;50.824;4.408;2023-04-24T03:13:15;99309.28;;;7.77;100.00
21100;BME280;10708;50.824;4.408;2023-04-24T03:18:17;99311.06;;;7.76;100.00
21100;BME280;10708;50.824;4.408;2023-04-24T03:23:19;99306.78;;;7.74;100.00
21100;BME280;10708;50.824;4.408;2023-04-24T03:28:23;99314.66;;;7.74;100.00
21100;BME280;10708;50.824;4.408;2023-04-24T03:33:26;99331.22;;;7.74;100.00
21100;BME280;10708;50.824;4.408;2023-04-24T03:38:28;99332.22;;;7.72;100.00
21100;BME280;10708;50.824;4.408;2023-04-24T03:43:32;99340.19;;;7.69;100.00
21100;BME280;10708;50.824;4.408;2023-04-24T03:48:35;99355.91;;;7.69;100.00
21100;BME280;10708;50.824;4.408;2023-04-24T03:53:37;99368.97;;;7.70;100.00
21100;BME280;10708;50.824;4.408;2023-04-24T03:58:41;99371.44;;;7.73;100.00
21100;BME280;10708;50.824;4.408;2023-04-24T04:03:44;99382.66;;;7.77;100.00
21100;BME280;10708;50.824;4.408;2023-04-24T04:08:46;99384.38;;;7.78;100.00
21100;BME280;10708;50.824;4.408;2023-04-24T04:13:50;99387.56;;;7.85;100.00
21100;BME280;10708;50.824;4.408;2023-04-24T04:18:53;99391.09;;;7.84;100.00
21100;BME280;10708;50.824;4.408;2023-04-24T04:23:56;99391.09;;;7.84;100.00
21100;BME280;10708;50.824;4.408;2023-04-24T04:29:00;99408.59;;;7.83;100.00
21100;BME280;10708;50.824;4.408;2023-04-24T04:34:04;99414.56;;;7.87;100.00
21100;BME280;10708;50.824;4.408;2023-04-24T04:39:06;99427.69;;;7.87;100.00
21100;BME280;10708;50.824;4.408;2023-04-24T04:44:10;99433.91;;;7.84;100.00
21100;BME280;10708;50.824;4.408;2023-04-24T04:49:13;99446.16;;;7.84;100.00
21100;BME280;10708;50.824;4.408;2023-04-24T04:54:17;99462.72;;;7.84;100.00
21100;BME280;10708;50.824;4.408;2023-04-24T04:59:21;99472.47;;;7.81;100.00
21100;BME280;10708;50.824;4.408;2023-04-24T05:04:23;99479.63;;;7.77;100.00
21100;BME280;10708;50.824;4.408;2023-04-24T05:09:26;99492.06;;;7.72;100.00
21100;BME280;10708;50.824;4.408;2023-04-24T05:14:31;99494.03;;;7.67;100.00
21100;BME280;10708;50.824;4.408;2023-04-24T05:19:34;99513.13;;;7.69;100.00
21100;BME280;10708;50.824;4.408;2023-04-24T05:24:38;99521.16;;;7.66;100.00
21100;BME280;10708;50.824;4.408;2023-04-24T05:29:42;99538.81;;;7.61;100.00
21100;BME280;10708;50.824;4.408;2023-04-24T05:34:44;99537.94;;;7.60;100.00
21100;BME280;10708;50.824;4.408;2023-04-24T05:39:47;99552.75;;;7.61;100.00
21100;BME280;10708;50.824;4.408;2023-04-24T05:44:51;99565.00;;;7.61;100.00
21100;BME280;10708;50.824;4.408;2023-04-24T05:49:55;99576.34;;;7.61;100.00
21100;BME280;10708;50.824;4.408;2023-04-24T05:54:57;99573.13;;;7.55;100.00
21100;BME280;10708;50.824;4.408;2023-04-24T06:00:01;99590.72;;;7.51;100.00
21100;BME280;10708;50.824;4.408;2023-04-24T06:05:05;99602.00;;;7.53;100.00
21100;BME280;10708;50.824;4.408;2023-04-24T06:10:09;99608.16;;;7.52;100.00
21100;BME280;10708;50.824;4.408;2023-04-24T06:15:13;99612.44;;;7.55;100.00
21100;BME280;10708;50.824;4.408;2023-04-24T06:20:15;99625.75;;;7.49;100.00
21100;BME280;10708;50.824;4.408;2023-04-24T06:25:18;99647.63;;;7.48;100.00
21100;BME280;10708;50.824;4.408;2023-04-24T06:30:22;99647.56;;;7.49;100.00
21100;BME280;10708;50.824;4.408;2023-04-24T06:35:25;99647.56;;;7.49;100.00
21100;BME280;10708;50.824;4.408;2023-04-24T06:40:28;99664.03;;;7.53;100.00
21100;BME280;10708;50.824;4.408;2023-04-24T06:45:32;99677.97;;;7.53;100.00
21100;BME280;10708;50.824;4.408;2023-04-24T06:50:35;99679.69;;;7.54;100.00
21100;BME280;10708;50.824;4.408;2023-04-24T06:55:38;99686.25;;;7.66;100.00
21100;BME280;10708;50.824;4.408;2023-04-24T07:00:45;99691.19;;;7.73;100.00
21100;BME280;10708;50.824;4.408;2023-04-24T07:05:48;99696.94;;;7.83;100.00
21100;BME280;10708;50.824;4.408;2023-04-24T07:10:51;99702.97;;;7.85;100.00
21100;BME280;10708;50.824;4.408;2023-04-24T07:15:55;99719.38;;;7.90;100.00
21100;BME280;10708;50.824;4.408;2023-04-24T07:20:58;99727.88;;;7.97;100.00
21100;BME280;10708;50.824;4.408;2023-04-24T07:26:03;99733.69;;;8.27;100.00
21100;BME280;10708;50.824;4.408;2023-04-24T07:31:12;99739.38;;;8.60;100.00
21100;BME280;10708;50.824;4.408;2023-04-24T07:36:15;99749.88;;;8.60;100.00
21100;BME280;10708;50.824;4.408;2023-04-24T07:41:19;99758.06;;;8.52;100.00
21100;BME280;10708;50.824;4.408;2023-04-24T07:46:24;99761.00;;;8.44;100.00
21100;BME280;10708;50.824;4.408;2023-04-24T07:51:27;99772.28;;;8.46;100.00
21100;BME280;10708;50.824;4.408;2023-04-24T07:56:30;99777.41;;;8.49;100.00
21100;BME280;10708;50.824;4.408;2023-04-24T08:01:34;99783.06;;;8.82;100.00
21100;BME280;10708;50.824;4.408;2023-04-24T08:06:39;99789.81;;;8.68;100.00
21100;BME280;10708;50.824;4.408;2023-04-24T08:11:43;99792.63;;;8.63;100.00
21100;BME280;10708;50.824;4.408;2023-04-24T08:16:48;99805.63;;;8.66;100.00
21100;BME280;10708;50.824;4.408;2023-04-24T08:21:52;99816.78;;;8.71;100.00
21100;BME280;10708;50.824;4.408;2023-04-24T08:26:55;99826.78;;;8.83;100.00
21100;BME280;10708;50.824;4.408;2023-04-24T08:32:00;99824.16;;;9.05;100.00
21100;BME280;10708;50.824;4.408;2023-04-24T08:37:06;99836.59;;;9.22;100.00
21100;BME280;10708;50.824;4.408;2023-04-24T08:42:09;99843.28;;;9.29;100.00
21100;BME280;10708;50.824;4.408;2023-04-24T08:47:15;99851.19;;;9.70;100.00
21100;BME280;10708;50.824;4.408;2023-04-24T08:52:18;99855.69;;;11.00;100.00
21100;BME280;10708;50.824;4.408;2023-04-24T08:57:21;99845.97;;;11.54;100.00
21100;BME280;10708;50.824;4.408;2023-04-24T09:02:26;99855.56;;;12.07;100.00
21100;BME280;10708;50.824;4.408;2023-04-24T09:07:30;99848.16;;;12.13;100.00
21100;BME280;10708;50.824;4.408;2023-04-24T09:12:36;99845.25;;;12.51;100.00
21100;BME280;10708;50.824;4.408;2023-04-24T09:17:40;99852.25;;;13.15;100.00
21100;BME280;10708;50.824;4.408;2023-04-24T09:22:42;99839.28;;;12.94;100.00
21100;BME280;10708;50.824;4.408;2023-04-24T09:27:45;99842.41;;;11.72;100.00
21100;BME280;10708;50.824;4.408;2023-04-24T09:32:49;99868.28;;;11.13;100.00
21100;BME280;10708;50.824;4.408;2023-04-24T09:37:52;99881.53;;;10.56;100.00
21100;BME280;10708;50.824;4.408;2023-04-24T09:42:55;99887.16;;;10.28;100.00
21100;BME280;10708;50.824;4.408;2023-04-24T09:48:00;99887.63;;;10.76;100.00
21100;BME280;10708;50.824;4.408;2023-04-24T09:53:04;99880.16;;;11.38;100.00
21100;BME280;10708;50.824;4.408;2023-04-24T09:58:08;99898.72;;;10.82;100.00
21100;BME280;10708;50.824;4.408;2023-04-24T10:03:12;99926.13;;;10.59;100.00
21100;BME280;10708;50.824;4.408;2023-04-24T10:08:15;99931.56;;;10.56;100.00
21100;BME280;10708;50.824;4.408;2023-04-24T10:13:17;99929.63;;;10.60;100.00
21100;BME280;10708;50.824;4.408;2023-04-24T10:18:21;99929.78;;;10.57;100.00
21100;BME280;10708;50.824;4.408;2023-04-24T10:23:25;99942.50;;;10.47;100.00
21100;BME280;10708;50.824;4.408;2023-04-24T10:28:27;99947.19;;;10.59;100.00
21100;BME280;10708;50.824;4.408;2023-04-24T10:33:34;99939.63;;;10.33;100.00
21100;BME280;10708;50.824;4.408;2023-04-24T10:38:37;99951.41;;;10.24;100.00
21100;BME280;10708;50.824;4.408;2023-04-24T10:43:41;99950.28;;;10.30;100.00
21100;BME280;10708;50.824;4.408;2023-04-24T10:48:52;99953.31;;;10.60;100.00
21100;BME280;10708;50.824;4.408;2023-04-24T10:53:57;99955.88;;;10.99;100.00
21100;BME280;10708;50.824;4.408;2023-04-24T10:59:00;99969.06;;;11.54;100.00
21100;BME280;10708;50.824;4.408;2023-04-24T11:04:04;99981.59;;;11.67;100.00
21100;BME280;10708;50.824;4.408;2023-04-24T11:09:08;99972.44;;;11.38;100.00
21100;BME280;10708;50.824;4.408;2023-04-24T11:14:14;99969.78;;;11.38;100.00
21100;BME280;10708;50.824;4.408;2023-04-24T11:19:25;99976.44;;;11.64;100.00
21100;BME280;10708;50.824;4.408;2023-04-24T11:24:31;99987.06;;;11.63;100.00
21100;BME280;10708;50.824;4.408;2023-04-24T11:29:45;99985.94;;;11.50;100.00
21100;BME280;10708;50.824;4.408;2023-04-24T11:34:50;99991.59;;;11.78;100.00
21100;BME280;10708;50.824;4.408;2023-04-24T11:39:54;100001.34;;;11.77;100.00
21100;BME280;10708;50.824;4.408;2023-04-24T11:44:57;99992.88;;;11.69;100.00
21100;BME280;10708;50.824;4.408;2023-04-24T11:50:04;100004.66;;;11.45;100.00
21100;BME280;10708;50.824;4.408;2023-04-24T11:55:07;100004.47;;;11.48;100.00
21100;BME280;10708;50.824;4.408;2023-04-24T12:00:16;100015.59;;;11.91;100.00
21100;BME280;10708;50.824;4.408;2023-04-24T12:05:21;100010.84;;;11.80;100.00
21100;BME280;10708;50.824;4.408;2023-04-24T12:10:25;100013.44;;;11.99;100.00
21100;BME280;10708;50.824;4.408;2023-04-24T12:15:28;100008.94;;;11.83;100.00
21100;BME280;10708;50.824;4.408;2023-04-24T12:20:32;100007.53;;;11.76;100.00
21100;BME280;10708;50.824;4.408;2023-04-24T12:25:35;100001.72;;;11.87;100.00
21100;BME280;10708;50.824;4.408;2023-04-24T12:30:40;100010.25;;;11.75;100.00
21100;BME280;10708;50.824;4.408;2023-04-24T12:35:47;100006.69;;;11.76;100.00
21100;BME280;10708;50.824;4.408;2023-04-24T12:41:02;100004.28;;;11.70;100.00
21100;BME280;10708;50.824;4.408;2023-04-24T12:46:05;99999.53;;;11.78;100.00
21100;BME280;10708;50.824;4.408;2023-04-24T12:51:09;99987.81;;;12.01;100.00
21100;BME280;10708;50.824;4.408;2023-04-24T12:56:11;99987.75;;;12.37;100.00
21100;BME280;10708;50.824;4.408;2023-04-24T13:01:14;99989.72;;;12.49;100.00
21100;BME280;10708;50.824;4.408;2023-04-24T13:06:18;99989.81;;;12.30;100.00
21100;BME280;10708;50.824;4.408;2023-04-24T13:11:21;100006.53;;;11.96;100.00
21100;BME280;10708;50.824;4.408;2023-04-24T13:16:24;100007.94;;;11.86;100.00
21100;BME280;10708;50.824;4.408;2023-04-24T13:21:29;100001.66;;;12.06;100.00
21100;BME280;10708;50.824;4.408;2023-04-24T13:26:31;99985.28;;;12.16;100.00
21100;BME280;10708;50.824;4.408;2023-04-24T13:31:34;99983.13;;;12.57;100.00
21100;BME280;10708;50.824;4.408;2023-04-24T13:36:37;99987.56;;;12.73;100.00
21100;BME280;10708;50.824;4.408;2023-04-24T13:41:40;99988.06;;;12.64;100.00
21100;BME280;10708;50.824;4.408;2023-04-24T13:46:43;99988.88;;;12.48;100.00
21100;BME280;10708;50.824;4.408;2023-04-24T13:51:47;99988.22;;;12.61;100.00
21100;BME280;10708;50.824;4.408;2023-04-24T13:56:50;99989.94;;;12.62;100.00
21100;BME280;10708;50.824;4.408;2023-04-24T14:01:53;99993.69;;;12.57;100.00
21100;BME280;10708;50.824;4.408;2023-04-24T14:06:57;99988.00;;;12.65;100.00
21100;BME280;10708;50.824;4.408;2023-04-24T14:11:59;99988.44;;;12.73;100.00
21100;BME280;10708;50.824;4.408;2023-04-24T14:17:02;99986.03;;;12.36;100.00
21100;BME280;10708;50.824;4.408;2023-04-24T14:22:07;99999.47;;;12.14;100.00
21100;BME280;10708;50.824;4.408;2023-04-24T14:27:09;99989.00;;;12.12;100.00
21100;BME280;10708;50.824;4.408;2023-04-24T14:32:12;99998.84;;;12.09;100.00
21100;BME280;10708;50.824;4.408;2023-04-24T14:37:17;99990.41;;;12.02;100.00
21100;BME280;10708;50.824;4.408;2023-04-24T14:42:19;99989.13;;;12.09;100.00
21100;BME280;10708;50.824;4.408;2023-04-24T14:47:22;99994.41;;;12.09;100.00
21100;BME280;10708;50.824;4.408;2023-04-24T14:52:25;100003.97;;;11.77;100.00
21100;BME280;10708;50.824;4.408;2023-04-24T14:57:28;99997.59;;;11.81;100.00
21100;BME280;10708;50.824;4.408;2023-04-24T15:02:32;99998.06;;;11.90;100.00
21100;BME280;10708;50.824;4.408;2023-04-24T15:07:37;100005.38;;;12.02;100.00
21100;BME280;10708;50.824;4.408;2023-04-24T15:12:39;100000.25;;;11.99;100.00
21100;BME280;10708;50.824;4.408;2023-04-24T15:17:42;100014.69;;;12.09;100.00
21100;BME280;10708;50.824;4.408;2023-04-24T15:22:47;100008.47;;;11.93;100.00
21100;BME280;10708;50.824;4.408;2023-04-24T15:27:49;100010.41;;;11.89;100.00
21100;BME280;10708;50.824;4.408;2023-04-24T15:32:51;100014.09;;;11.68;100.00
21100;BME280;10708;50.824;4.408;2023-04-24T15:37:55;100019.34;;;11.87;100.00
21100;BME280;10708;50.824;4.408;2023-04-24T15:42:58;100017.47;;;11.89;100.00
21100;BME280;10708;50.824;4.408;2023-04-24T15:53:17;100026.44;;;11.67;100.00
21100;BME280;10708;50.824;4.408;2023-04-24T16:03:45;100032.31;;;11.36;100.00
21100;BME280;10708;50.824;4.408;2023-04-24T16:08:49;100034.09;;;11.36;100.00
21100;BME280;10708;50.824;4.408;2023-04-24T16:13:51;100031.16;;;11.23;100.00
21100;BME280;10708;50.824;4.408;2023-04-24T16:18:54;100032.44;;;11.33;100.00
21100;BME280;10708;50.824;4.408;2023-04-24T16:23:57;100044.41;;;11.40;100.00
21100;BME280;10708;50.824;4.408;2023-04-24T16:34:03;100050.97;;;11.32;100.00
21100;BME280;10708;50.824;4.408;2023-04-24T16:39:07;100055.69;;;11.25;100.00
21100;BME280;10708;50.824;4.408;2023-04-24T16:44:11;100050.53;;;11.22;100.00
21100;BME280;10708;50.824;4.408;2023-04-24T16:49:14;100038.19;;;11.41;100.00
21100;BME280;10708;50.824;4.408;2023-04-24T16:54:18;100032.66;;;11.48;100.00
21100;BME280;10708;50.824;4.408;2023-04-24T16:59:20;100054.38;;;11.53;100.00
21100;BME280;10708;50.824;4.408;2023-04-24T17:04:23;100050.50;;;11.60;100.00
21100;BME280;10708;50.824;4.408;2023-04-24T17:09:27;100065.75;;;11.72;100.00
21100;BME280;10708;50.824;4.408;2023-04-24T17:14:30;100055.66;;;11.63;100.00
21100;BME280;10708;50.824;4.408;2023-04-24T17:19:32;100063.03;;;11.37;100.00
21100;BME280;10708;50.824;4.408;2023-04-24T17:24:36;100058.38;;;11.05;100.00
21100;BME280;10708;50.824;4.408;2023-04-24T17:29:40;100062.03;;;10.82;100.00
21100;BME280;10708;50.824;4.408;2023-04-24T17:34:42;100056.44;;;10.69;100.00
21100;BME280;10708;50.824;4.408;2023-04-24T17:39:47;100071.16;;;10.55;100.00
21100;BME280;10708;50.824;4.408;2023-04-24T17:44:49;100072.41;;;10.46;100.00
21100;BME280;10708;50.824;4.408;2023-04-24T17:49:52;100076.03;;;10.44;100.00
21100;BME280;10708;50.824;4.408;2023-04-24T17:54:57;100082.34;;;10.40;100.00
21100;BME280;10708;50.824;4.408;2023-04-24T17:59:59;100084.84;;;10.43;100.00
21100;BME280;10708;50.824;4.408;2023-04-24T18:05:02;100083.41;;;10.35;100.00
21100;BME280;10708;50.824;4.408;2023-04-24T18:10:07;100091.47;;;10.31;100.00
21100;BME280;10708;50.824;4.408;2023-04-24T18:15:10;100094.38;;;10.25;100.00
21100;BME280;10708;50.824;4.408;2023-04-24T18:20:14;100088.50;;;10.18;100.00
21100;BME280;10708;50.824;4.408;2023-04-24T18:25:19;100095.66;;;10.15;100.00
21100;BME280;10708;50.824;4.408;2023-04-24T18:30:26;100104.44;;;10.14;100.00
21100;BME280;10708;50.824;4.408;2023-04-24T18:35:31;100107.56;;;10.02;100.00
21100;BME280;10708;50.824;4.408;2023-04-24T18:40:35;100107.91;;;9.94;100.00
21100;BME280;10708;50.824;4.408;2023-04-24T18:45:38;100118.84;;;9.83;100.00
21100;BME280;10708;50.824;4.408;2023-04-24T18:50:40;100124.41;;;9.76;100.00
21100;BME280;10708;50.824;4.408;2023-04-24T18:55:44;100122.19;;;9.65;100.00
21100;BME280;10708;50.824;4.408;2023-04-24T19:00:46;100130.50;;;9.54;100.00
21100;BME280;10708;50.824;4.408;2023-04-24T19:16:41;100148.16;;;9.28;100.00
21100;BME280;10708;50.824;4.408;2023-04-24T19:21:49;100156.31;;;9.20;100.00
21100;BME280;10708;50.824;4.408;2023-04-24T19:32:17;100173.94;;;9.18;100.00
21100;BME280;10708;50.824;4.408;2023-04-24T19:37:24;100179.09;;;9.19;100.00
21100;BME280;10708;50.824;4.408;2023-04-24T19:42:28;100181.72;;;9.19;100.00
21100;BME280;10708;50.824;4.408;2023-04-24T19:47:40;100179.97;;;9.20;100.00
21100;BME280;10708;50.824;4.408;2023-04-24T19:52:47;100199.34;;;9.17;100.00
21100;BME280;10708;50.824;4.408;2023-04-24T19:57:50;100191.56;;;9.14;100.00
21100;BME280;10708;50.824;4.408;2023-04-24T20:02:54;100187.25;;;9.12;100.00
21100;BME280;10708;50.824;4.408;2023-04-24T20:13:22;100208.47;;;9.07;100.00
21100;BME280;10708;50.824;4.408;2023-04-24T20:18:29;100205.22;;;8.99;100.00
21100;BME280;10708;50.824;4.408;2023-04-24T20:23:35;100196.59;;;8.96;100.00
21100;BME280;10708;50.824;4.408;2023-04-24T20:28:38;100196.88;;;8.88;100.00
21100;BME280;10708;50.824;4.408;2023-04-24T20:33:41;100200.47;;;8.85;100.00
21100;BME280;10708;50.824;4.408;2023-04-24T20:38:45;100192.69;;;8.82;100.00
21100;BME280;10708;50.824;4.408;2023-04-24T20:43:48;100192.91;;;8.76;100.00
21100;BME280;10708;50.824;4.408;2023-04-24T20:48:58;100200.06;;;8.71;100.00
21100;BME280;10708;50.824;4.408;2023-04-24T20:54:04;100199.31;;;8.68;100.00
21100;BME280;10708;50.824;4.408;2023-04-24T20:59:08;100204.66;;;8.65;100.00
21100;BME280;10708;50.824;4.408;2023-04-24T21:04:12;100206.25;;;8.69;100.00
21100;BME280;10708;50.824;4.408;2023-04-24T21:09:15;100193.22;;;8.67;100.00
21100;BME280;10708;50.824;4.408;2023-04-24T21:14:17;100190.41;;;8.72;100.00
21100;BME280;10708;50.824;4.408;2023-04-24T21:19:21;100191.31;;;8.71;100.00
21100;BME280;10708;50.824;4.408;2023-04-24T21:24:25;100185.22;;;8.70;100.00
21100;BME280;10708;50.824;4.408;2023-04-24T21:29:27;100177.38;;;8.69;100.00
21100;BME280;10708;50.824;4.408;2023-04-24T21:34:31;100177.47;;;8.67;100.00
21100;BME280;10708;50.824;4.408;2023-04-24T21:39:34;100176.66;;;8.65;100.00
21100;BME280;10708;50.824;4.408;2023-04-24T21:44:37;100189.06;;;8.60;100.00
21100;BME280;10708;50.824;4.408;2023-04-24T21:49:41;100180.41;;;8.58;100.00
21100;BME280;10708;50.824;4.408;2023-04-24T21:54:43;100180.41;;;8.58;100.00
21100;BME280;10708;50.824;4.408;2023-04-24T21:59:46;100166.56;;;8.53;100.00
21100;BME280;10708;50.824;4.408;2023-04-24T22:04:50;100173.78;;;8.46;100.00
21100;BME280;10708;50.824;4.408;2023-04-24T22:09:56;100173.97;;;8.40;100.00
21100;BME280;10708;50.824;4.408;2023-04-24T22:14:59;100175.09;;;8.33;100.00
21100;BME280;10708;50.824;4.408;2023-04-24T22:20:03;100178.63;;;8.31;100.00
21100;BME280;10708;50.824;4.408;2023-04-24T22:25:08;100182.31;;;8.25;100.00
21100;BME280;10708;50.824;4.408;2023-04-24T22:30:11;100175.31;;;8.26;100.00
21100;BME280;10708;50.824;4.408;2023-04-24T22:35:15;100178.13;;;8.20;100.00
21100;BME280;10708;50.824;4.408;2023-04-24T22:40:19;100172.19;;;8.14;100.00
21100;BME280;10708;50.824;4.408;2023-04-24T22:45:21;100174.19;;;8.06;100.00
21100;BME280;10708;50.824;4.408;2023-04-24T22:50:26;100178.47;;;8.09;100.00
21100;BME280;10708;50.824;4.408;2023-04-24T22:55:29;100173.47;;;8.01;100.00
21100;BME280;10708;50.824;4.408;2023-04-24T23:00:31;100176.25;;;7.97;100.00
21100;BME280;10708;50.824;4.408;2023-04-24T23:05:35;100170.97;;;7.98;100.00
21100;BME280;10708;50.824;4.408;2023-04-24T23:10:37;100176.94;;;8.02;100.00
21100;BME280;10708;50.824;4.408;2023-04-24T23:15:40;100187.47;;;8.00;100.00
21100;BME280;10708;50.824;4.408;2023-04-24T23:20:44;100184.00;;;8.00;100.00
21100;BME280;10708;50.824;4.408;2023-04-24T23:25:46;100187.44;;;8.02;100.00
21100;BME280;10708;50.824;4.408;2023-04-24T23:30:49;100182.16;;;8.03;100.00
21100;BME280;10708;50.824;4.408;2023-04-24T23:35:52;100188.28;;;8.02;100.00
21100;BME280;10708;50.824;4.408;2023-04-24T23:40:55;100183.94;;;8.01;100.00
21100;BME280;10708;50.824;4.408;2023-04-24T23:45:57;100186.69;;;7.98;100.00
21100;BME280;10708;50.824;4.408;2023-04-24T23:51:01;100185.84;;;7.98;100.00
21100;BME280;10708;50.824;4.408;2023-04-24T23:56:04;100182.47;;;7.93;100.00
